createdAt,value
2022-08-29T00:02:12.322Z,86.97
2022-08-29T00:04:40.461Z,86.92
2022-08-29T00:07:08.504Z,86.86
2022-08-29T00:09:36.673Z,86.93
2022-08-29T00:12:05.307Z,86.99
2022-08-29T00:14:33.568Z,87.26
2022-08-29T00:17:02.868Z,87.32
2022-08-29T00:19:30.888Z,87.56
2022-08-29T00:21:58.995Z,87.67
2022-08-29T00:24:31.951Z,87.79
2022-08-29T00:27:02.671Z,87.97
2022-08-29T00:29:30.688Z,88.03
2022-08-29T00:31:58.798Z,87.89
2022-08-29T00:34:28.252Z,87.85
2022-08-29T00:36:56.287Z,87.74
2022-08-29T00:39:24.295Z,87.83
2022-08-29T00:41:52.349Z,87.78
2022-08-29T00:44:20.555Z,87.81
2022-08-29T00:46:52.290Z,87.95
2022-08-29T00:49:30.651Z,87.98
2022-08-29T00:51:59.995Z,88.18
2022-08-29T00:54:28.140Z,88.33
2022-08-29T00:56:56.553Z,88.49
2022-08-29T00:59:28.882Z,88.53
2022-08-29T01:01:57.146Z,88.54
2022-08-29T01:04:25.232Z,88.69
2022-08-29T01:06:55.119Z,88.95
2022-08-29T01:09:23.801Z,89.08
2022-08-29T01:12:09.991Z,89.28
2022-08-29T01:14:38.813Z,89.45
2022-08-29T01:17:09.488Z,89.60
2022-08-29T01:19:47.718Z,89.56
2022-08-29T01:22:37.041Z,89.73
2022-08-29T01:25:12.588Z,89.85
2022-08-29T01:27:44.457Z,89.92
2022-08-29T01:30:15.338Z,90.04
2022-08-29T01:32:43.809Z,90.27
2022-08-29T01:35:12.363Z,90.39
2022-08-29T01:37:43.016Z,90.34
2022-08-29T01:40:14.378Z,90.40
2022-08-29T01:42:42.589Z,90.44
2022-08-29T01:45:12.050Z,90.64
2022-08-29T01:47:40.580Z,90.55
2022-08-29T01:50:11.632Z,90.69
2022-08-29T01:52:39.820Z,90.56
2022-08-29T01:55:08.629Z,90.39
2022-08-29T01:57:38.961Z,90.41
2022-08-29T02:00:09.482Z,90.33
2022-08-29T02:02:38.301Z,90.30
2022-08-29T02:05:07.671Z,90.33
2022-08-29T02:07:35.756Z,90.30
2022-08-29T02:10:04.901Z,90.43
2022-08-29T02:12:32.978Z,90.38
2022-08-29T02:15:02.550Z,90.56
2022-08-29T02:17:30.611Z,90.49
2022-08-29T02:19:58.725Z,90.62
2022-08-29T02:22:26.847Z,90.68
2022-08-29T02:24:55.455Z,90.71
2022-08-29T02:27:23.469Z,90.91
2022-08-29T02:29:53.241Z,90.90
2022-08-29T02:32:22.720Z,90.99
2022-08-29T02:34:50.975Z,91.04
2022-08-29T02:37:19.002Z,91.24
2022-08-29T02:39:47.111Z,91.23
2022-08-29T02:42:15.179Z,91.18
2022-08-29T02:44:43.206Z,91.26
2022-08-29T02:47:11.248Z,91.31
2022-08-29T02:49:40.801Z,91.34
2022-08-29T02:52:09.410Z,91.35
2022-08-29T02:54:38.224Z,91.34
2022-08-29T02:57:06.913Z,91.36
2022-08-29T02:59:35.057Z,91.40
2022-08-29T03:02:03.709Z,91.35
2022-08-29T03:04:31.818Z,91.42
2022-08-29T03:07:01.169Z,91.38
2022-08-29T03:09:29.228Z,91.45
2022-08-29T03:11:57.333Z,91.53
2022-08-29T03:14:25.471Z,91.60
2022-08-29T03:16:53.643Z,91.68
2022-08-29T03:19:22.916Z,91.77
2022-08-29T03:21:51.279Z,91.75
2022-08-29T03:24:26.160Z,91.97
2022-08-29T03:26:56.686Z,92.03
2022-08-29T03:29:25.702Z,91.96
2022-08-29T03:31:53.994Z,91.82
2022-08-29T03:34:21.999Z,91.89
2022-08-29T03:36:50.309Z,91.90
2022-08-29T03:39:19.876Z,91.96
2022-08-29T03:41:48.192Z,92.02
2022-08-29T03:44:16.301Z,92.08
2022-08-29T03:46:44.350Z,92.01
2022-08-29T03:49:12.361Z,92.09
2022-08-29T03:51:41.058Z,92.12
2022-08-29T03:54:09.102Z,92.28
2022-08-29T03:56:38.848Z,92.31
2022-08-29T03:59:06.898Z,92.31
2022-08-29T04:01:35.032Z,92.38
2022-08-29T04:04:03.360Z,92.43
2022-08-29T04:06:33.625Z,92.58
2022-08-29T04:09:01.896Z,92.65
2022-08-29T04:11:29.943Z,92.78
2022-08-29T04:13:59.361Z,92.82
2022-08-29T04:16:30.735Z,92.85
2022-08-29T04:18:59.737Z,93.00
2022-08-29T04:21:27.825Z,93.01
2022-08-29T04:23:56.494Z,93.05
2022-08-29T04:26:36.406Z,93.15
2022-08-29T04:29:06.966Z,93.15
2022-08-29T04:31:37.124Z,93.27
2022-08-29T04:34:06.058Z,93.30
2022-08-29T04:36:34.824Z,93.29
2022-08-29T04:39:03.239Z,93.48
2022-08-29T04:41:33.120Z,93.72
2022-08-29T04:44:02.178Z,93.85
2022-08-29T04:46:32.217Z,94.10
2022-08-29T04:49:04.068Z,94.16
2022-08-29T04:51:34.337Z,94.05
2022-08-29T04:54:03.041Z,93.93
2022-08-29T04:56:31.147Z,93.80
2022-08-29T04:58:59.207Z,93.78
2022-08-29T05:01:27.559Z,93.72
2022-08-29T05:03:58.017Z,93.76
2022-08-29T05:06:26.064Z,93.58
2022-08-29T05:08:55.108Z,93.41
2022-08-29T05:11:29.655Z,93.18
2022-08-29T05:13:58.187Z,92.92
2022-08-29T05:16:26.229Z,92.39
2022-08-29T05:18:55.175Z,92.03
2022-08-29T05:21:31.878Z,91.14
2022-08-29T05:24:05.444Z,90.45
2022-08-29T05:26:37.377Z,89.69
2022-08-29T05:29:08.644Z,88.85
2022-08-29T05:31:37.755Z,88.12
2022-08-29T05:34:32.562Z,87.33
2022-08-29T05:36:55.494Z,86.32
2022-08-29T05:39:23.491Z,86.11
2022-08-29T05:41:51.549Z,86.29
2022-08-29T05:44:19.584Z,86.10
2022-08-29T05:46:49.015Z,85.60
2022-08-29T05:49:17.159Z,85.29
2022-08-29T05:51:45.432Z,84.95
2022-08-29T05:54:14.888Z,84.93
2022-08-29T05:56:43.070Z,84.87
2022-08-29T05:59:12.602Z,84.78
2022-08-29T06:01:41.241Z,84.66
2022-08-29T06:04:09.311Z,84.49
2022-08-29T06:06:37.408Z,84.80
2022-08-29T06:09:06.169Z,84.63
2022-08-29T06:11:35.997Z,84.64
2022-08-29T06:14:04.226Z,84.19
2022-08-29T06:16:33.560Z,84.23
2022-08-29T06:19:01.571Z,83.92
2022-08-29T06:21:30.484Z,83.94
2022-08-29T06:23:58.957Z,83.92
2022-08-29T06:26:27.111Z,84.05
2022-08-29T06:28:56.551Z,83.97
2022-08-29T06:31:29.341Z,83.77
2022-08-29T06:34:00.623Z,83.83
2022-08-29T06:36:29.857Z,83.78
2022-08-29T06:38:59.144Z,83.66
2022-08-29T06:41:27.746Z,83.82
2022-08-29T06:43:58.295Z,83.96
2022-08-29T06:46:28.046Z,84.02
2022-08-29T06:48:57.444Z,84.32
2022-08-29T06:51:46.783Z,84.57
2022-08-29T06:54:15.395Z,84.52
2022-08-29T06:56:43.995Z,84.56
2022-08-29T06:59:14.230Z,84.62
2022-08-29T07:01:43.058Z,84.47
2022-08-29T07:04:14.649Z,84.53
2022-08-29T07:06:43.039Z,84.68
2022-08-29T07:09:11.831Z,84.80
2022-08-29T07:11:41.742Z,84.90
2022-08-29T07:14:10.236Z,84.86
2022-08-29T07:16:40.180Z,84.89
2022-08-29T07:19:10.175Z,84.87
2022-08-29T07:21:39.680Z,84.78
2022-08-29T07:24:08.906Z,84.69
2022-08-29T07:26:38.981Z,84.32
2022-08-29T07:29:09.594Z,84.45
2022-08-29T07:31:40.053Z,84.48
2022-08-29T07:34:08.701Z,84.10
2022-08-29T07:36:37.682Z,83.88
2022-08-29T07:39:08.098Z,84.07
2022-08-29T07:41:36.453Z,84.00
2022-08-29T07:44:04.941Z,84.08
2022-08-29T07:46:33.028Z,84.00
2022-08-29T07:49:02.847Z,83.76
2022-08-29T07:51:31.111Z,83.31
2022-08-29T07:53:59.352Z,83.40
2022-08-29T07:56:30.876Z,83.35
2022-08-29T07:59:01.851Z,83.37
2022-08-29T08:01:30.120Z,83.10
2022-08-29T08:03:58.497Z,82.91
2022-08-29T08:06:28.554Z,82.67
2022-08-29T08:08:58.816Z,82.87
2022-08-29T08:11:27.861Z,82.77
2022-08-29T08:13:57.482Z,82.15
2022-08-29T08:16:27.047Z,82.33
2022-08-29T08:18:55.860Z,81.61
2022-08-29T08:21:24.749Z,81.44
2022-08-29T08:23:54.318Z,81.27
2022-08-29T08:26:23.080Z,81.36
2022-08-29T08:28:51.325Z,80.94
2022-08-29T08:31:21.440Z,81.13
2022-08-29T08:33:51.916Z,80.96
2022-08-29T08:36:22.663Z,80.67
2022-08-29T08:38:52.369Z,80.32
2022-08-29T08:41:29.936Z,80.41
2022-08-29T08:44:01.580Z,80.12
2022-08-29T08:46:34.154Z,80.00
2022-08-29T08:49:03.539Z,80.03
2022-08-29T08:51:35.958Z,79.98
2022-08-29T08:54:06.660Z,80.18
2022-08-29T08:56:39.545Z,80.57
2022-08-29T08:59:11.332Z,80.52
2022-08-29T09:01:44.198Z,80.73
2022-08-29T09:04:34.575Z,80.84
2022-08-29T09:07:12.068Z,80.54
2022-08-29T09:09:51.135Z,80.47
2022-08-29T09:12:28.882Z,80.49
2022-08-29T09:15:04.100Z,80.09
2022-08-29T09:17:37.091Z,79.54
2022-08-29T09:20:10.294Z,79.40
2022-08-29T09:22:41.075Z,79.75
2022-08-29T09:25:12.668Z,79.48
2022-08-29T09:27:42.123Z,79.45
2022-08-29T09:30:12.971Z,79.33
2022-08-29T09:32:56.583Z,78.58
2022-08-29T09:35:29.063Z,77.99
2022-08-29T09:37:59.780Z,78.65
2022-08-29T09:40:52.456Z,78.46
2022-08-29T09:43:23.607Z,77.14
2022-08-29T09:46:10.583Z,77.39
2022-08-29T09:48:40.198Z,77.40
2022-08-29T09:51:28.328Z,77.20
2022-08-29T09:54:14.576Z,77.13
2022-08-29T09:56:50.889Z,76.89
2022-08-29T09:59:24.597Z,76.95
2022-08-29T10:02:20.596Z,77.65
2022-08-29T10:04:51.681Z,78.10
2022-08-29T10:07:22.265Z,77.47
2022-08-29T10:10:02.499Z,77.50
2022-08-29T10:12:37.891Z,78.18
2022-08-29T10:15:19.578Z,77.82
2022-08-29T10:18:18.098Z,77.61
2022-08-29T10:20:52.939Z,76.79
2022-08-29T10:23:26.688Z,76.36
2022-08-29T10:25:55.215Z,76.69
2022-08-29T10:28:29.602Z,75.75
2022-08-29T10:31:05.525Z,75.10
2022-08-29T10:33:49.126Z,74.92
2022-08-29T10:36:20.075Z,74.34
2022-08-29T10:38:49.826Z,74.14
2022-08-29T10:41:26.755Z,74.38
2022-08-29T10:44:02.747Z,73.23
2022-08-29T10:46:43.676Z,73.40
2022-08-29T10:49:18.847Z,72.56
2022-08-29T10:51:52.480Z,72.32
2022-08-29T10:54:27.553Z,72.35
2022-08-29T10:56:56.110Z,72.07
2022-08-29T10:59:30.441Z,72.38
2022-08-29T11:02:05.018Z,73.25
2022-08-29T11:04:38.294Z,73.33
2022-08-29T11:07:09.271Z,73.28
2022-08-29T11:09:40.359Z,73.24
2022-08-29T11:12:17.686Z,73.48
2022-08-29T11:14:50.195Z,74.29
2022-08-29T11:17:20.868Z,72.85
2022-08-29T11:19:56.208Z,73.31
2022-08-29T11:22:27.633Z,73.27
2022-08-29T11:25:01.288Z,73.20
2022-08-29T11:27:35.993Z,73.65
2022-08-29T11:30:07.976Z,72.89
2022-08-29T11:32:47.871Z,72.48
2022-08-29T11:35:21.431Z,71.79
2022-08-29T11:38:12.262Z,71.47
2022-08-29T11:43:49.022Z,70.80
2022-08-29T11:46:32.755Z,70.32
2022-08-29T11:49:36.273Z,69.05
2022-08-29T11:52:22.478Z,69.43
2022-08-29T11:55:07.911Z,69.59
2022-08-29T11:57:51.240Z,68.93
2022-08-29T12:00:30.390Z,69.92
2022-08-29T12:02:58.391Z,68.69
2022-08-29T12:05:59.504Z,68.64
2022-08-29T12:08:37.276Z,68.79
2022-08-29T12:11:06.647Z,68.47
2022-08-29T12:14:00.579Z,67.24
2022-08-29T12:16:50.651Z,68.37
2022-08-29T12:19:50.590Z,67.46
2022-08-29T12:22:59.258Z,66.93
2022-08-29T12:25:55.204Z,66.67
2022-08-29T12:28:38.037Z,67.16
2022-08-29T12:31:22.361Z,68.01
2022-08-29T12:34:05.888Z,67.29
2022-08-29T12:36:52.279Z,67.87
2022-08-29T12:39:31.579Z,67.53
2022-08-29T12:42:12.259Z,66.86
2022-08-29T12:44:42.146Z,67.11
2022-08-29T12:47:13.316Z,68.04
2022-08-29T12:49:48.481Z,66.86
2022-08-29T12:52:23.302Z,68.36
2022-08-29T12:54:56.371Z,66.95
2022-08-29T12:57:27.457Z,67.08
2022-08-29T12:59:55.526Z,67.72
2022-08-29T13:02:29.393Z,67.31
2022-08-29T13:04:57.888Z,68.18
2022-08-29T13:07:27.412Z,68.10
2022-08-29T13:09:58.273Z,67.06
2022-08-29T13:12:28.803Z,67.28
2022-08-29T13:15:00.141Z,67.43
2022-08-29T13:17:30.412Z,67.54
2022-08-29T13:20:41.058Z,66.85
2022-08-29T13:23:11.230Z,66.97
2022-08-29T13:25:47.121Z,67.64
2022-08-29T13:28:17.438Z,67.74
2022-08-29T13:30:48.836Z,67.41
2022-08-29T13:33:34.739Z,67.35
2022-08-29T13:36:36.193Z,66.94
2022-08-29T13:39:41.343Z,66.41
2022-08-29T13:42:15.993Z,66.08
2022-08-29T13:44:55.760Z,65.16
2022-08-29T13:47:27.298Z,65.47
2022-08-29T13:49:58.010Z,65.04
2022-08-29T13:52:31.601Z,65.12
2022-08-29T13:55:00.213Z,65.33
2022-08-29T13:57:30.496Z,64.95
2022-08-29T13:59:59.410Z,65.64
2022-08-29T14:02:28.698Z,65.65
2022-08-29T14:04:57.107Z,65.37
2022-08-29T14:07:27.095Z,64.98
2022-08-29T14:09:55.184Z,65.24
2022-08-29T14:12:33.227Z,64.83
2022-08-29T14:15:08.321Z,65.04
2022-08-29T14:17:37.936Z,66.03
2022-08-29T14:20:09.364Z,64.52
2022-08-29T14:22:38.059Z,64.54
2022-08-29T14:25:07.882Z,63.76
2022-08-29T14:27:35.981Z,64.08
2022-08-29T14:30:07.035Z,63.88
2022-08-29T14:32:35.238Z,63.46
2022-08-29T14:35:03.521Z,63.69
2022-08-29T14:37:33.713Z,63.81
2022-08-29T14:40:01.917Z,64.15
2022-08-29T14:42:31.964Z,63.85
2022-08-29T14:45:00.006Z,64.26
2022-08-29T14:47:29.985Z,63.51
2022-08-29T14:49:59.045Z,62.98
2022-08-29T14:52:27.715Z,63.59
2022-08-29T14:54:58.189Z,63.61
2022-08-29T14:57:27.236Z,63.72
2022-08-29T14:59:56.279Z,63.41
2022-08-29T15:02:25.025Z,63.25
2022-08-29T15:04:56.635Z,62.70
2022-08-29T15:07:26.203Z,64.23
2022-08-29T15:09:55.397Z,63.97
2022-08-29T15:12:24.926Z,63.04
2022-08-29T15:14:54.610Z,63.03
2022-08-29T15:17:25.312Z,63.60
2022-08-29T15:22:45.491Z,63.49
2022-08-29T15:25:16.635Z,63.38
2022-08-29T15:27:50.148Z,63.10
2022-08-29T15:30:21.704Z,63.30
2022-08-29T15:32:51.422Z,63.07
2022-08-29T15:35:22.058Z,63.23
2022-08-29T15:37:52.947Z,63.39
2022-08-29T15:40:21.174Z,63.78
2022-08-29T15:42:49.218Z,64.04
2022-08-29T15:45:17.243Z,64.42
2022-08-29T15:47:46.303Z,62.08
2022-08-29T15:50:15.320Z,61.52
2022-08-29T15:52:44.875Z,62.46
2022-08-29T15:55:13.206Z,62.40
2022-08-29T15:57:51.847Z,63.08
2022-08-29T16:00:30.693Z,62.85
2022-08-29T16:03:01.619Z,63.37
2022-08-29T16:05:30.283Z,62.58
2022-08-29T16:07:59.896Z,62.11
2022-08-29T16:10:28.274Z,62.52
2022-08-29T16:12:56.370Z,62.30
2022-08-29T16:15:24.870Z,62.60
2022-08-29T16:17:53.612Z,62.22
2022-08-29T16:20:21.873Z,63.22
2022-08-29T16:22:50.000Z,62.45
2022-08-29T16:25:19.654Z,62.33
2022-08-29T16:27:50.139Z,62.16
2022-08-29T16:30:19.170Z,63.17
2022-08-29T16:32:47.957Z,62.93
2022-08-29T16:35:16.814Z,63.22
2022-08-29T16:37:44.998Z,63.90
2022-08-29T16:40:17.555Z,64.75
2022-08-29T16:42:55.347Z,65.33
2022-08-29T16:45:24.209Z,64.67
2022-08-29T16:47:57.248Z,65.26
2022-08-29T16:50:26.418Z,64.91
2022-08-29T16:52:55.024Z,65.23
2022-08-29T16:55:23.555Z,65.55
2022-08-29T16:58:10.529Z,65.26
2022-08-29T17:00:58.651Z,64.73
2022-08-29T17:03:27.354Z,65.53
2022-08-29T17:05:55.652Z,65.15
2022-08-29T17:08:22.748Z,65.82
2022-08-29T17:10:49.739Z,66.01
2022-08-29T17:13:18.080Z,65.58
2022-08-29T17:15:45.051Z,66.14
2022-08-29T17:18:13.119Z,65.64
2022-08-29T17:20:46.088Z,66.30
2022-08-29T17:23:15.722Z,66.83
2022-08-29T17:25:44.271Z,66.64
2022-08-29T17:28:19.435Z,67.28
2022-08-29T17:30:50.708Z,67.32
2022-08-29T17:33:19.763Z,67.74
2022-08-29T17:35:51.294Z,68.04
2022-08-29T17:38:19.824Z,68.38
2022-08-29T17:40:49.037Z,68.80
2022-08-29T17:43:18.520Z,69.26
2022-08-29T17:45:47.207Z,69.49
2022-08-29T17:48:17.398Z,70.10
2022-08-29T17:50:46.372Z,70.94
2022-08-29T17:53:14.650Z,71.10
2022-08-29T17:55:43.449Z,71.66
2022-08-29T17:58:12.279Z,72.04
2022-08-29T18:00:40.954Z,72.82
2022-08-29T18:03:09.399Z,73.35
2022-08-29T18:05:39.414Z,73.88
2022-08-29T18:08:08.058Z,74.10
2022-08-29T18:10:37.306Z,73.90
2022-08-29T18:13:06.225Z,74.08
2022-08-29T18:15:35.494Z,74.44
2022-08-29T18:18:04.299Z,74.87
2022-08-29T18:20:32.617Z,75.07
2022-08-29T18:23:02.120Z,75.60
2022-08-29T18:25:30.310Z,75.84
2022-08-29T18:27:58.399Z,76.14
2022-08-29T18:30:27.183Z,76.45
2022-08-29T18:32:55.308Z,76.88
2022-08-29T18:35:23.696Z,77.43
2022-08-29T18:37:51.705Z,77.82
2022-08-29T18:40:21.284Z,78.11
2022-08-29T18:42:49.417Z,78.28
2022-08-29T18:45:17.627Z,78.25
2022-08-29T18:47:45.675Z,78.70
2022-08-29T18:50:31.590Z,79.32
2022-08-29T18:52:59.675Z,79.75
2022-08-29T18:55:29.277Z,79.73
2022-08-29T18:57:57.305Z,79.91
2022-08-29T19:00:26.769Z,80.49
2022-08-29T19:02:55.631Z,80.93
2022-08-29T19:05:25.300Z,81.11
2022-08-29T19:07:53.718Z,81.70
2022-08-29T19:10:22.608Z,82.13
2022-08-29T19:12:51.954Z,82.57
2022-08-29T19:15:21.009Z,82.95
2022-08-29T19:17:49.505Z,83.20
2022-08-29T19:20:38.150Z,83.61
2022-08-29T19:23:07.817Z,83.80
2022-08-29T19:25:36.205Z,84.20
2022-08-29T19:28:06.997Z,84.36
2022-08-29T19:30:35.560Z,84.40
2022-08-29T19:33:03.552Z,84.65
2022-08-29T19:35:32.230Z,84.69
2022-08-29T19:38:00.337Z,84.86
2022-08-29T19:40:30.775Z,85.08
2022-08-29T19:43:02.667Z,85.45
2022-08-29T19:45:32.319Z,85.70
2022-08-29T19:48:02.155Z,85.70
2022-08-29T19:50:30.252Z,85.85
2022-08-29T19:52:58.647Z,86.05
2022-08-29T19:55:27.087Z,86.15
2022-08-29T19:57:55.363Z,86.51
2022-08-29T20:00:25.098Z,86.82
2022-08-29T20:02:56.348Z,87.05
2022-08-29T20:05:25.049Z,87.23
2022-08-29T20:07:53.654Z,87.46
2022-08-29T20:10:23.533Z,87.53
2022-08-29T20:12:52.610Z,87.56
2022-08-29T20:15:22.206Z,87.77
2022-08-29T20:18:01.299Z,87.98
2022-08-29T20:20:31.981Z,88.23
2022-08-29T20:23:00.155Z,88.49
2022-08-29T20:25:29.024Z,88.68
2022-08-29T20:27:57.342Z,88.81
2022-08-29T20:30:28.205Z,88.94
2022-08-29T20:32:56.324Z,89.17
2022-08-29T20:35:43.544Z,89.46
2022-08-29T20:38:12.216Z,89.55
2022-08-29T20:40:43.307Z,89.71
2022-08-29T20:43:11.490Z,89.90
2022-08-29T20:45:39.752Z,90.24
2022-08-29T20:48:07.869Z,90.50
2022-08-29T20:50:37.314Z,90.67
2022-08-29T20:53:05.830Z,90.71
2022-08-29T20:55:33.986Z,90.74
2022-08-29T20:58:02.133Z,90.86
2022-08-29T21:00:30.223Z,90.91
2022-08-29T21:03:16.359Z,90.99
2022-08-29T21:05:46.498Z,91.05
2022-08-29T21:08:17.063Z,91.29
2022-08-29T21:10:46.199Z,91.36
2022-08-29T21:13:15.233Z,91.39
2022-08-29T21:15:43.996Z,91.49
2022-08-29T21:18:13.802Z,91.19
2022-08-29T21:20:53.817Z,90.79
2022-08-29T21:23:24.142Z,90.73
2022-08-29T21:25:53.938Z,90.87
2022-08-29T21:28:22.782Z,90.65
2022-08-29T21:30:51.568Z,90.54
2022-08-29T21:33:19.996Z,90.49
2022-08-29T21:35:49.930Z,90.25
2022-08-29T21:38:18.717Z,90.33
2022-08-29T21:40:51.117Z,90.22
2022-08-29T21:43:20.779Z,90.30
2022-08-29T21:45:49.197Z,90.26
2022-08-29T21:48:17.454Z,90.20
2022-08-29T21:50:45.536Z,90.27
2022-08-29T21:53:29.880Z,90.34
2022-08-29T21:56:01.090Z,90.58
2022-08-29T21:58:29.430Z,91.07
2022-08-29T22:00:57.562Z,91.22
2022-08-29T22:03:25.626Z,91.40
2022-08-29T22:05:54.325Z,91.42
2022-08-29T22:08:22.598Z,91.37
2022-08-29T22:10:52.030Z,91.37
2022-08-29T22:13:20.082Z,91.36
2022-08-29T22:16:06.108Z,91.38
2022-08-29T22:18:34.380Z,91.39
2022-08-29T22:21:04.421Z,91.34
2022-08-29T22:23:32.475Z,91.45
2022-08-29T22:26:01.861Z,91.43
2022-08-29T22:28:30.451Z,91.47
2022-08-29T22:30:58.917Z,91.59
2022-08-29T22:33:27.082Z,91.91
2022-08-29T22:35:55.408Z,92.37
2022-08-29T22:38:23.487Z,92.32
2022-08-29T22:40:51.648Z,92.47
2022-08-29T22:43:21.313Z,92.56
2022-08-29T22:45:50.636Z,92.91
2022-08-29T22:48:21.534Z,92.91
2022-08-29T22:50:54.036Z,92.87
2022-08-29T22:53:26.672Z,92.83
2022-08-29T22:55:54.887Z,92.88
2022-08-29T22:58:24.336Z,92.98
2022-08-29T23:00:52.654Z,92.96
2022-08-29T23:03:20.738Z,93.20
2022-08-29T23:05:48.880Z,93.31
2022-08-29T23:08:18.444Z,93.39
2022-08-29T23:10:49.314Z,93.38
2022-08-29T23:13:17.917Z,93.35
2022-08-29T23:15:47.509Z,93.34
2022-08-29T23:18:15.619Z,93.37
2022-08-29T23:20:46.874Z,93.35
2022-08-29T23:23:15.130Z,93.24
2022-08-29T23:25:43.319Z,93.37
2022-08-29T23:28:11.351Z,93.54
2022-08-29T23:30:39.462Z,93.66
2022-08-29T23:33:09.027Z,93.53
2022-08-29T23:35:37.113Z,93.67
2022-08-29T23:38:07.791Z,93.72
2022-08-29T23:40:36.853Z,93.77
2022-08-29T23:43:05.717Z,93.84
2022-08-29T23:45:33.792Z,93.89
2022-08-29T23:48:01.866Z,93.92
2022-08-29T23:50:31.555Z,93.91
2022-08-29T23:52:59.588Z,94.02
2022-08-29T23:55:27.612Z,93.91
2022-08-29T23:57:55.779Z,93.88
